Terminal Aerodrome Forecast
Issued by NWS Omaha/Valley, NE

Home | Current Version | Previous Version | Text Only | Print | Product List | Glossary On
Versions: 1 2 3 4 5 6 7 8 9 10 11 12 13 14 15 16 17 18 19 20 21 22 23
000
FTUS43 KOAX 301720
TAFOMA
TAF
KOMA 301720Z 3018/0118 18012KT 6SM -SHRA SCT030 OVC060
      TEMPO 3019/3022 2SM TSRA OVC030CB
     FM302300 15008KT P6SM SCT015 BKN050
     FM010400 16010KT 5SM -SHRA BR OVC040
      TEMPO 0104/0108 2SM TSRA BR OVC025CB
     FM010900 15008KT 4SM BR OVC015
      TEMPO 0110/0114 2SM BR BKN007=

USA.gov is the U.S. government's official web portal to all federal, state and local government web resources and services.